Time;durP1;ratioP1;P1;durP2;ratioP2;P2;SDS_P1;SDS_P2;PMS_P1;PMS_P2;Temp;Humidity;BMP_temperature;BMP_pressure;BME280_temperature;BME280_humidity;BME280_pressure;Samples;Min_cycle;Max_cycle;Signal;HPM_P1;HPM_P2
2022/07/17 00:00:59;;;;;;;6.57;5.97;;;;;;;;;;5032625;28;20442;-77
2022/07/17 00:03:26;;;;;;;6.87;5.97;;;;;;;;;;5031995;28;21059;-76
2022/07/17 00:05:53;;;;;;;7.00;5.70;;;;;;;;;;5032490;28;20447;-76
2022/07/17 00:08:20;;;;;;;6.10;5.57;;;;;;;;;;5032701;28;20493;-77
2022/07/17 00:10:47;;;;;;;5.40;5.00;;;;;;;;;;5051197;28;20454;-77
2022/07/17 00:13:14;;;;;;;6.00;5.50;;;;;;;;;;5051295;28;21030;-76
2022/07/17 00:15:43;;;;;;;8.57;7.77;;;;;;;;;;5052177;28;20937;-78
2022/07/17 00:18:10;;;;;;;7.70;6.90;;;;;;;;;;5051617;28;20855;-77
2022/07/17 00:20:37;;;;;;;6.77;6.27;;;;;;;;;;5052100;28;20449;-77
2022/07/17 00:23:04;;;;;;;8.63;6.20;;;;;;;;;;5052417;28;20482;-77
2022/07/17 00:25:32;;;;;;;7.10;6.53;;;;;;;;;;5051775;28;20453;-76
2022/07/17 00:27:59;;;;;;;6.80;6.20;;;;;;;;;;5051379;28;20552;-77
2022/07/17 00:30:26;;;;;;;6.47;5.83;;;;;;;;;;5051318;28;20499;-77
2022/07/17 00:32:54;;;;;;;6.80;5.70;;;;;;;;;;5050430;28;20523;-78
2022/07/17 00:35:22;;;;;;;6.30;5.70;;;;;;;;;;5051089;28;20503;-77
2022/07/17 00:37:49;;;;;;;6.33;5.80;;;;;;;;;;5051420;28;20453;-78
2022/07/17 00:40:19;;;;;;;6.97;5.90;;;;;;;;;;5051655;28;20555;-76
2022/07/17 00:42:46;;;;;;;6.10;5.60;;;;;;;;;;5050536;28;20488;-76
2022/07/17 00:45:14;;;;;;;6.70;6.07;;;;;;;;;;5050922;28;20441;-76
2022/07/17 00:47:50;;;;;;;6.00;5.50;;;;;;;;;;5050984;28;20507;-76
2022/07/17 00:50:18;;;;;;;7.60;5.67;;;;;;;;;;5050910;28;20448;-77
2022/07/17 00:52:45;;;;;;;6.23;5.60;;;;;;;;;;5057619;28;20466;-76
2022/07/17 00:55:13;;;;;;;5.80;5.30;;;;;;;;;;5051730;28;20445;-77
2022/07/17 00:57:41;;;;;;;5.70;5.20;;;;;;;;;;5049794;28;20468;-76
2022/07/17 01:00:10;;;;;;;6.63;6.03;;;;;;;;;;5050742;28;20503;-77
2022/07/17 01:02:37;;;;;;;6.10;5.70;;;;;;;;;;5050334;28;20515;-77
2022/07/17 01:05:05;;;;;;;5.93;5.40;;;;;;;;;;5050618;28;20874;-76
2022/07/17 01:07:34;;;;;;;6.50;5.80;;;;;;;;;;5050306;28;20527;-77
2022/07/17 01:10:01;;;;;;;7.03;5.90;;;;;;;;;;5037673;28;20443;-76
2022/07/17 01:12:28;;;;;;;6.27;5.63;;;;;;;;;;5030559;28;20466;-75
2022/07/17 01:14:57;;;;;;;5.27;4.87;;;;;;;;;;5030669;28;20442;-76
2022/07/17 01:17:24;;;;;;;5.30;4.90;;;;;;;;;;5030498;28;20524;-76
2022/07/17 01:19:51;;;;;;;6.00;5.50;;;;;;;;;;5030231;28;20501;-77
2022/07/17 01:22:19;;;;;;;5.70;5.30;;;;;;;;;;5030022;28;20595;-76
2022/07/17 01:24:46;;;;;;;7.50;5.90;;;;;;;;;;5030386;28;20446;-76
2022/07/17 01:27:13;;;;;;;6.50;5.90;;;;;;;;;;5030215;28;20442;-76
2022/07/17 01:29:40;;;;;;;6.40;5.83;;;;;;;;;;5030272;28;20501;-75
2022/07/17 01:32:07;;;;;;;7.13;6.47;;;;;;;;;;5030418;28;20686;-76
2022/07/17 01:34:34;;;;;;;5.50;5.10;;;;;;;;;;5029739;28;20512;-78
2022/07/17 01:37:01;;;;;;;5.60;5.10;;;;;;;;;;5030066;28;20450;-77
2022/07/17 01:42:14;;;;;;;6.10;5.53;;;;;;;;;;5029988;28;20969;-76
2022/07/17 01:44:41;;;;;;;6.10;5.50;;;;;;;;;;5029995;28;20520;-77
2022/07/17 01:47:08;;;;;;;6.03;5.53;;;;;;;;;;5030251;28;20853;-76
2022/07/17 01:49:35;;;;;;;6.67;5.30;;;;;;;;;;5029785;28;20503;-76
2022/07/17 01:52:03;;;;;;;6.97;5.83;;;;;;;;;;5030372;28;20450;-75
2022/07/17 01:54:31;;;;;;;5.87;5.17;;;;;;;;;;5029882;28;20516;-76
2022/07/17 01:56:58;;;;;;;5.77;5.30;;;;;;;;;;5030036;28;20442;-77
2022/07/17 01:59:25;;;;;;;6.10;5.50;;;;;;;;;;5029896;28;20446;-76
2022/07/17 02:01:52;;;;;;;6.33;5.47;;;;;;;;;;5029951;28;20866;-76
2022/07/17 02:04:19;;;;;;;6.87;6.23;;;;;;;;;;5034454;28;20482;-77
2022/07/17 02:06:46;;;;;;;5.33;4.90;;;;;;;;;;5030364;28;20455;-76
2022/07/17 02:09:13;;;;;;;5.33;4.87;;;;;;;;;;5036054;28;20438;-76
2022/07/17 02:11:41;;;;;;;5.37;4.97;;;;;;;;;;5053841;28;20449;-76
2022/07/17 02:14:08;;;;;;;5.03;4.63;;;;;;;;;;5053460;28;21008;-75
2022/07/17 02:16:35;;;;;;;5.63;5.30;;;;;;;;;;5053567;28;20456;-76
2022/07/17 02:19:02;;;;;;;5.57;5.07;;;;;;;;;;5053626;28;20445;-77
2022/07/17 02:21:29;;;;;;;5.97;5.40;;;;;;;;;;5053901;28;20467;-77
2022/07/17 02:23:56;;;;;;;6.03;4.90;;;;;;;;;;5053182;28;20477;-75
2022/07/17 02:26:24;;;;;;;5.90;5.50;;;;;;;;;;5053871;28;20440;-76
2022/07/17 02:28:52;;;;;;;5.67;5.17;;;;;;;;;;5053409;28;20449;-76
2022/07/17 02:31:19;;;;;;;4.77;4.47;;;;;;;;;;5053065;28;20868;-77
2022/07/17 02:33:46;;;;;;;7.90;4.93;;;;;;;;;;5053100;28;20514;-76
2022/07/17 02:36:13;;;;;;;5.10;4.70;;;;;;;;;;5053262;28;20936;-76
2022/07/17 02:38:40;;;;;;;5.97;5.30;;;;;;;;;;5053539;28;20507;-76
2022/07/17 02:41:07;;;;;;;6.80;5.23;;;;;;;;;;5053259;28;20523;-76
2022/07/17 02:43:34;;;;;;;5.70;5.10;;;;;;;;;;5052795;28;20901;-76
2022/07/17 02:46:02;;;;;;;5.97;5.47;;;;;;;;;;5052936;28;20506;-75
2022/07/17 02:48:30;;;;;;;6.83;5.10;;;;;;;;;;5053224;28;20876;-75
2022/07/17 02:50:57;;;;;;;5.63;5.23;;;;;;;;;;5053052;28;20929;-76
2022/07/17 02:53:24;;;;;;;5.73;5.23;;;;;;;;;;5052633;28;20465;-76
2022/07/17 02:55:51;;;;;;;5.70;5.17;;;;;;;;;;5052995;28;20503;-77
2022/07/17 02:58:18;;;;;;;6.07;5.57;;;;;;;;;;5052981;28;20495;-77
2022/07/17 03:00:45;;;;;;;6.10;5.50;;;;;;;;;;5053417;28;20849;-78
2022/07/17 03:03:13;;;;;;;5.77;5.37;;;;;;;;;;5051885;28;20489;-76
2022/07/17 03:05:40;;;;;;;5.70;5.30;;;;;;;;;;5051691;28;21010;-76
2022/07/17 03:08:07;;;;;;;7.03;6.37;;;;;;;;;;5051544;28;20495;-76
2022/07/17 03:10:34;;;;;;;6.17;5.67;;;;;;;;;;5034148;28;20499;-77
2022/07/17 03:13:01;;;;;;;6.00;5.50;;;;;;;;;;5031035;28;20462;-76
2022/07/17 03:15:28;;;;;;;5.57;5.00;;;;;;;;;;5031845;28;20455;-76
2022/07/17 03:17:55;;;;;;;5.80;5.30;;;;;;;;;;5041553;28;20462;-76
2022/07/17 03:20:24;;;;;;;5.70;5.30;;;;;;;;;;5038821;28;20502;-75
2022/07/17 03:22:51;;;;;;;6.33;5.83;;;;;;;;;;5039215;28;20478;-77
2022/07/17 03:25:18;;;;;;;6.90;6.20;;;;;;;;;;5041534;28;20443;-76
2022/07/17 03:27:45;;;;;;;7.80;6.50;;;;;;;;;;5043829;28;20447;-76
2022/07/17 03:30:12;;;;;;;7.90;5.70;;;;;;;;;;5041425;28;20496;-76
2022/07/17 03:32:39;;;;;;;6.53;5.93;;;;;;;;;;5031048;28;20470;-76
2022/07/17 03:35:07;;;;;;;8.00;6.23;;;;;;;;;;5031014;28;20454;-74
2022/07/17 03:37:37;;;;;;;6.30;5.83;;;;;;;;;;5031482;28;20534;-75
2022/07/17 03:40:04;;;;;;;6.20;5.60;;;;;;;;;;5031031;28;20458;-75
2022/07/17 03:42:31;;;;;;;6.37;5.77;;;;;;;;;;5030875;28;21048;-76
2022/07/17 03:44:58;;;;;;;6.70;6.13;;;;;;;;;;5031078;28;20450;-77
2022/07/17 03:47:25;;;;;;;6.50;5.57;;;;;;;;;;5030909;28;20954;-75
2022/07/17 03:49:52;;;;;;;6.07;5.57;;;;;;;;;;5031264;28;20446;-76
2022/07/17 03:52:19;;;;;;;7.50;5.90;;;;;;;;;;5030883;28;20855;-75
2022/07/17 03:54:47;;;;;;;6.13;5.53;;;;;;;;;;5029616;28;20450;-77
2022/07/17 03:57:14;;;;;;;6.07;5.47;;;;;;;;;;5031091;28;20505;-78
2022/07/17 03:59:41;;;;;;;6.53;5.93;;;;;;;;;;5031404;28;20458;-76
2022/07/17 04:02:08;;;;;;;6.70;6.17;;;;;;;;;;4995519;28;1027446;-77
2022/07/17 04:04:35;;;;;;;6.57;6.07;;;;;;;;;;5031449;28;20485;-77
2022/07/17 04:07:02;;;;;;;7.37;6.67;;;;;;;;;;5032132;28;20510;-77
2022/07/17 04:09:29;;;;;;;10.80;7.07;;;;;;;;;;5039874;28;20499;-77
2022/07/17 04:11:58;;;;;;;7.70;6.90;;;;;;;;;;5051775;28;20499;-76
2022/07/17 04:14:25;;;;;;;10.43;6.93;;;;;;;;;;5051288;28;20442;-76
2022/07/17 04:16:52;;;;;;;11.00;7.70;;;;;;;;;;5051534;28;20526;-76
2022/07/17 04:19:19;;;;;;;9.27;7.37;;;;;;;;;;5051499;28;20446;-76
2022/07/17 04:21:46;;;;;;;7.53;7.03;;;;;;;;;;5051487;28;20454;-76
2022/07/17 04:24:13;;;;;;;8.60;7.80;;;;;;;;;;5051346;28;20543;-76
2022/07/17 04:26:40;;;;;;;8.20;7.53;;;;;;;;;;5052168;28;20503;-76
2022/07/17 04:29:09;;;;;;;8.90;8.03;;;;;;;;;;5051427;28;20548;-75
2022/07/17 04:31:36;;;;;;;10.23;9.40;;;;;;;;;;5051355;28;20500;-76
2022/07/17 04:34:03;;;;;;;8.87;8.27;;;;;;;;;;5050548;28;20470;-78
2022/07/17 04:36:30;;;;;;;8.90;8.20;;;;;;;;;;5051408;28;20876;-77
2022/07/17 04:38:57;;;;;;;8.80;8.10;;;;;;;;;;5051358;28;20446;-78
2022/07/17 04:41:24;;;;;;;8.77;8.17;;;;;;;;;;5051022;28;20856;-76
2022/07/17 04:43:51;;;;;;;9.97;8.53;;;;;;;;;;5050531;28;20481;-76
2022/07/17 04:46:19;;;;;;;7.93;7.23;;;;;;;;;;5053256;28;20441;-76
2022/07/17 04:48:46;;;;;;;9.33;8.53;;;;;;;;;;5057492;28;20450;-77
2022/07/17 04:51:13;;;;;;;8.60;7.90;;;;;;;;;;5059516;28;20441;-76
2022/07/17 04:53:40;;;;;;;8.60;7.70;;;;;;;;;;5058093;28;20458;-75
2022/07/17 04:56:07;;;;;;;14.40;9.10;;;;;;;;;;5059040;28;20446;-77
2022/07/17 04:58:34;;;;;;;9.90;8.30;;;;;;;;;;5060243;28;20449;-76
2022/07/17 05:01:01;;;;;;;10.20;9.20;;;;;;;;;;5060336;28;20441;-76
2022/07/17 05:03:29;;;;;;;8.30;7.50;;;;;;;;;;5054618;28;20492;-77
2022/07/17 05:05:56;;;;;;;9.73;7.40;;;;;;;;;;5052240;28;20456;-75
2022/07/17 05:08:23;;;;;;;11.97;8.80;;;;;;;;;;5051582;28;20445;-77
2022/07/17 05:10:50;;;;;;;11.87;8.90;;;;;;;;;;5031976;28;20512;-77
2022/07/17 05:13:17;;;;;;;8.90;8.00;;;;;;;;;;5030565;28;20473;-77
2022/07/17 05:15:44;;;;;;;9.87;8.90;;;;;;;;;;5032070;28;20497;-77
2022/07/17 05:18:11;;;;;;;11.13;8.80;;;;;;;;;;5031324;28;20446;-76
2022/07/17 05:20:41;;;;;;;9.60;8.40;;;;;;;;;;5031119;28;20446;-78
2022/07/17 05:23:08;;;;;;;13.53;9.00;;;;;;;;;;5030267;28;20474;-77
2022/07/17 05:25:35;;;;;;;8.30;7.70;;;;;;;;;;5030547;28;21003;-77
2022/07/17 05:28:02;;;;;;;8.30;7.67;;;;;;;;;;5032349;28;20496;-77
2022/07/17 05:30:29;;;;;;;9.40;8.50;;;;;;;;;;5031868;28;20525;-78
2022/07/17 05:32:56;;;;;;;8.17;7.43;;;;;;;;;;5030474;28;20485;-77
2022/07/17 05:35:23;;;;;;;9.20;8.40;;;;;;;;;;5031071;28;20446;-77
2022/07/17 05:37:51;;;;;;;8.83;7.93;;;;;;;;;;5030768;28;20943;-78
2022/07/17 05:40:18;;;;;;;8.20;7.40;;;;;;;;;;5030661;28;20450;-78
2022/07/17 05:42:45;;;;;;;9.47;8.20;;;;;;;;;;5029924;28;20989;-77
2022/07/17 05:45:12;;;;;;;8.47;7.73;;;;;;;;;;5029863;28;20486;-79
2022/07/17 05:47:39;;;;;;;8.53;7.73;;;;;;;;;;5031134;28;20501;-78
2022/07/17 05:50:07;;;;;;;7.93;7.33;;;;;;;;;;5032338;28;20516;-79
2022/07/17 05:52:34;;;;;;;9.70;8.43;;;;;;;;;;5038868;28;20466;-78
2022/07/17 05:55:02;;;;;;;7.80;7.30;;;;;;;;;;5042258;28;20446;-78
2022/07/17 05:57:29;;;;;;;8.67;7.80;;;;;;;;;;5041833;28;20773;-77
2022/07/17 05:59:56;;;;;;;7.97;7.27;;;;;;;;;;5040071;28;20469;-77
2022/07/17 06:02:23;;;;;;;9.23;8.43;;;;;;;;;;5031223;28;20470;-77
2022/07/17 06:04:50;;;;;;;8.23;7.40;;;;;;;;;;5030975;28;20532;-78
2022/07/17 06:07:17;;;;;;;8.30;7.60;;;;;;;;;;5031320;28;20438;-78
2022/07/17 06:09:44;;;;;;;7.03;6.50;;;;;;;;;;5040017;28;20853;-78
2022/07/17 06:12:12;;;;;;;7.97;7.00;;;;;;;;;;5050060;28;20516;-78
2022/07/17 06:14:39;;;;;;;7.50;7.00;;;;;;;;;;5050523;28;20559;-78
2022/07/17 06:17:06;;;;;;;7.57;6.97;;;;;;;;;;5049982;28;20429;-78
2022/07/17 06:19:33;;;;;;;7.10;6.57;;;;;;;;;;5050136;28;21099;-78
2022/07/17 06:22:00;;;;;;;7.20;6.60;;;;;;;;;;5050286;28;20437;-78
2022/07/17 06:24:27;;;;;;;7.80;7.10;;;;;;;;;;5050081;28;20618;-78
2022/07/17 06:26:54;;;;;;;6.90;6.20;;;;;;;;;;5049712;28;20800;-79
2022/07/17 06:29:23;;;;;;;8.47;6.00;;;;;;;;;;5050474;28;20445;-78
2022/07/17 06:31:50;;;;;;;8.17;6.43;;;;;;;;;;5049990;28;20445;-78
2022/07/17 06:34:17;;;;;;;6.80;6.30;;;;;;;;;;5050162;28;20466;-78
2022/07/17 06:36:44;;;;;;;6.80;6.20;;;;;;;;;;5050592;28;20471;-78
2022/07/17 06:39:11;;;;;;;6.53;6.03;;;;;;;;;;5049724;28;20437;-76
2022/07/17 06:41:38;;;;;;;6.83;6.23;;;;;;;;;;5049654;28;20441;-76
2022/07/17 06:44:05;;;;;;;7.10;6.50;;;;;;;;;;5049098;28;20507;-76
2022/07/17 06:46:33;;;;;;;6.27;5.77;;;;;;;;;;5049615;28;20507;-76
2022/07/17 06:49:00;;;;;;;6.40;5.80;;;;;;;;;;5049972;28;20511;-76
2022/07/17 06:51:27;;;;;;;5.73;5.20;;;;;;;;;;5049557;28;20445;-77
2022/07/17 06:53:54;;;;;;;5.10;4.70;;;;;;;;;;5048742;28;20457;-77
2022/07/17 06:56:21;;;;;;;5.50;5.10;;;;;;;;;;5050831;28;20769;-77
2022/07/17 06:58:48;;;;;;;5.00;4.47;;;;;;;;;;5053000;28;20798;-76
2022/07/17 07:01:15;;;;;;;5.17;4.87;;;;;;;;;;5053859;28;20446;-76
2022/07/17 07:03:44;;;;;;;5.57;5.10;;;;;;;;;;5053672;28;20477;-76
2022/07/17 07:06:11;;;;;;;6.17;5.57;;;;;;;;;;5052946;28;20441;-77
2022/07/17 07:08:38;;;;;;;5.00;4.60;;;;;;;;;;5053530;28;21304;-76
2022/07/17 07:11:05;;;;;;;7.53;5.07;;;;;;;;;;5033477;28;20446;-77
2022/07/17 07:13:32;;;;;;;5.90;5.40;;;;;;;;;;5032562;28;20466;-76
2022/07/17 07:15:59;;;;;;;5.10;4.60;;;;;;;;;;5032777;28;20942;-77
2022/07/17 07:18:26;;;;;;;4.70;4.40;;;;;;;;;;5032843;28;20453;-78
2022/07/17 07:20:55;;;;;;;5.00;4.63;;;;;;;;;;5032497;28;20439;-78
2022/07/17 07:23:22;;;;;;;5.40;5.00;;;;;;;;;;5032449;28;20488;-76
2022/07/17 07:25:49;;;;;;;4.93;4.60;;;;;;;;;;5032696;28;20474;-76
2022/07/17 07:28:16;;;;;;;4.93;4.47;;;;;;;;;;5032443;28;20447;-77
2022/07/17 07:30:43;;;;;;;6.00;4.23;;;;;;;;;;5032643;28;20504;-77
2022/07/17 07:33:10;;;;;;;4.70;4.30;;;;;;;;;;5032262;28;20470;-77
2022/07/17 07:35:37;;;;;;;5.17;4.13;;;;;;;;;;5032672;28;20492;-77
2022/07/17 07:38:05;;;;;;;9.63;4.43;;;;;;;;;;5032571;28;20446;-77
2022/07/17 07:40:32;;;;;;;3.90;3.70;;;;;;;;;;5032617;28;20496;-77
2022/07/17 07:42:59;;;;;;;4.93;3.77;;;;;;;;;;5032378;28;20553;-78
2022/07/17 07:45:26;;;;;;;4.30;4.00;;;;;;;;;;5032083;28;20895;-76
2022/07/17 07:47:54;;;;;;;4.00;3.73;;;;;;;;;;5032162;28;20442;-77
2022/07/17 07:50:24;;;;;;;4.47;4.10;;;;;;;;;;5032521;28;20577;-76
2022/07/17 07:52:51;;;;;;;4.53;4.03;;;;;;;;;;5032209;28;20455;-77
2022/07/17 07:55:21;;;;;;;4.23;4.00;;;;;;;;;;5031905;28;20488;-77
2022/07/17 07:57:48;;;;;;;4.73;4.30;;;;;;;;;;5031920;28;20468;-76
2022/07/17 08:00:15;;;;;;;4.40;4.00;;;;;;;;;;5031787;28;20602;-76
2022/07/17 08:02:42;;;;;;;4.37;3.83;;;;;;;;;;5031510;28;20532;-77
2022/07/17 08:05:09;;;;;;;3.73;3.43;;;;;;;;;;5031754;28;20844;-78
2022/07/17 08:07:37;;;;;;;4.00;3.70;;;;;;;;;;5030692;28;20443;-78
2022/07/17 08:10:04;;;;;;;4.63;4.33;;;;;;;;;;5044264;28;20503;-77
2022/07/17 08:12:33;;;;;;;4.07;3.80;;;;;;;;;;5051324;28;20540;-76
2022/07/17 08:15:00;;;;;;;3.60;3.37;;;;;;;;;;5051323;28;20499;-78
2022/07/17 08:17:27;;;;;;;4.80;3.80;;;;;;;;;;5051730;28;20528;-77
2022/07/17 08:19:54;;;;;;;3.93;3.73;;;;;;;;;;5051417;28;20450;-76
2022/07/17 08:22:21;;;;;;;4.67;3.60;;;;;;;;;;5051109;28;20473;-78
2022/07/17 08:24:48;;;;;;;3.97;3.67;;;;;;;;;;5051791;28;21497;-76
2022/07/17 08:27:15;;;;;;;4.07;3.60;;;;;;;;;;5051603;28;20434;-77
2022/07/17 08:29:43;;;;;;;3.80;3.50;;;;;;;;;;5051258;28;20446;-77
2022/07/17 08:32:10;;;;;;;3.47;3.27;;;;;;;;;;5051101;28;20454;-77
2022/07/17 08:34:37;;;;;;;3.77;3.40;;;;;;;;;;5051117;28;20481;-77
2022/07/17 08:37:04;;;;;;;4.30;3.70;;;;;;;;;;5051343;28;20442;-78
2022/07/17 08:39:31;;;;;;;3.87;3.53;;;;;;;;;;5051277;28;20453;-77
2022/07/17 08:41:58;;;;;;;3.27;3.13;;;;;;;;;;5051583;28;20442;-77
2022/07/17 08:44:25;;;;;;;4.30;4.00;;;;;;;;;;5050733;28;20446;-79
2022/07/17 08:46:54;;;;;;;4.40;4.10;;;;;;;;;;5050840;28;20944;-78
2022/07/17 08:49:22;;;;;;;3.43;3.20;;;;;;;;;;5050782;28;20472;-78
2022/07/17 08:51:49;;;;;;;3.43;3.13;;;;;;;;;;5050634;28;20949;-76
2022/07/17 08:54:17;;;;;;;4.87;3.07;;;;;;;;;;5050281;28;20474;-77
2022/07/17 08:56:44;;;;;;;3.00;2.83;;;;;;;;;;5050305;28;20883;-77
2022/07/17 08:59:11;;;;;;;3.30;3.00;;;;;;;;;;5050603;28;20441;-76
2022/07/17 09:01:38;;;;;;;3.83;3.53;;;;;;;;;;5050536;28;20511;-77
2022/07/17 09:04:07;;;;;;;3.60;3.30;;;;;;;;;;5050063;28;20543;-76
2022/07/17 09:06:34;;;;;;;3.37;3.17;;;;;;;;;;5051340;28;20862;-77
2022/07/17 09:09:02;;;;;;;3.90;3.60;;;;;;;;;;5046713;28;20434;-77
2022/07/17 09:11:30;;;;;;;6.03;3.37;;;;;;;;;;5031145;28;20447;-78
2022/07/17 09:13:57;;;;;;;3.50;3.20;;;;;;;;;;5031045;28;20549;-77
2022/07/17 09:16:24;;;;;;;4.00;3.37;;;;;;;;;;5031454;28;20505;-77
2022/07/17 09:18:53;;;;;;;3.27;2.97;;;;;;;;;;5030819;28;20492;-77
2022/07/17 09:21:22;;;;;;;3.50;3.30;;;;;;;;;;5030513;28;20544;-76
2022/07/17 09:23:58;;;;;;;2.97;2.87;;;;;;;;;;5029861;28;21002;-78
2022/07/17 09:26:26;;;;;;;3.30;3.10;;;;;;;;;;5030284;28;20501;-78
2022/07/17 09:28:53;;;;;;;3.47;2.83;;;;;;;;;;5030473;28;20438;-77
2022/07/17 09:31:25;;;;;;;3.60;2.93;;;;;;;;;;5030484;28;20447;-78
2022/07/17 09:33:52;;;;;;;2.70;2.50;;;;;;;;;;5030227;28;20470;-77
2022/07/17 09:36:21;;;;;;;3.50;3.30;;;;;;;;;;5030499;28;20530;-77
2022/07/17 09:38:49;;;;;;;2.80;2.60;;;;;;;;;;5030956;28;20451;-78
2022/07/17 09:41:18;;;;;;;3.50;2.77;;;;;;;;;;5030586;28;20508;-77
2022/07/17 09:43:47;;;;;;;2.60;1.90;;;;;;;;;;5029954;28;20474;-76
2022/07/17 09:46:15;;;;;;;2.17;2.07;;;;;;;;;;5030727;28;20482;-77
2022/07/17 09:48:47;;;;;;;2.63;2.00;;;;;;;;;;5030688;28;20879;-77
2022/07/17 09:51:14;;;;;;;2.60;2.10;;;;;;;;;;5030268;28;20918;-77
2022/07/17 09:53:45;;;;;;;2.30;2.20;;;;;;;;;;5030096;28;20458;-77
2022/07/17 09:56:13;;;;;;;4.17;2.60;;;;;;;;;;5030149;28;20830;-77
2022/07/17 09:58:42;;;;;;;3.43;2.27;;;;;;;;;;5029775;28;20450;-77
2022/07/17 10:01:09;;;;;;;3.07;2.20;;;;;;;;;;5030082;28;20512;-78
2022/07/17 10:03:36;;;;;;;2.23;2.13;;;;;;;;;;5029524;28;20481;-76
2022/07/17 10:06:04;;;;;;;2.50;2.33;;;;;;;;;;5029979;28;20478;-77
2022/07/17 10:08:33;;;;;;;2.57;2.40;;;;;;;;;;5029865;28;20439;-77
2022/07/17 10:11:02;;;;;;;2.53;2.37;;;;;;;;;;5049583;28;20445;-77
2022/07/17 10:13:30;;;;;;;2.63;2.37;;;;;;;;;;5049481;28;21033;-76
2022/07/17 10:15:57;;;;;;;2.20;2.10;;;;;;;;;;5049646;28;20479;-77
2022/07/17 10:18:35;;;;;;;2.37;2.27;;;;;;;;;;5049535;28;20438;-78
2022/07/17 10:21:07;;;;;;;2.40;2.30;;;;;;;;;;5049701;28;20457;-78
2022/07/17 10:23:34;;;;;;;2.37;2.17;;;;;;;;;;5049346;28;20535;-77
2022/07/17 10:26:02;;;;;;;2.23;2.10;;;;;;;;;;5049383;28;20534;-77
2022/07/17 10:28:39;;;;;;;2.63;2.53;;;;;;;;;;5049571;28;20511;-76
2022/07/17 10:31:06;;;;;;;2.07;1.97;;;;;;;;;;5050744;28;20437;-76
2022/07/17 10:33:33;;;;;;;2.40;2.30;;;;;;;;;;5053000;28;20469;-77
2022/07/17 10:36:00;;;;;;;2.50;2.30;;;;;;;;;;5054291;28;20429;-77
2022/07/17 10:38:28;;;;;;;3.00;2.10;;;;;;;;;;5053912;28;20456;-77
2022/07/17 10:41:01;;;;;;;3.17;2.23;;;;;;;;;;5054269;28;20449;-78
2022/07/17 10:43:40;;;;;;;2.10;2.00;;;;;;;;;;5054993;28;20555;-77
2022/07/17 10:46:07;;;;;;;2.20;2.10;;;;;;;;;;5054295;28;21038;-77
2022/07/17 10:48:35;;;;;;;2.47;2.27;;;;;;;;;;5053335;28;20456;-77
2022/07/17 10:51:02;;;;;;;2.43;2.33;;;;;;;;;;5056838;28;20441;-76
2022/07/17 10:53:30;;;;;;;2.60;2.40;;;;;;;;;;5056424;28;21163;-77
2022/07/17 10:55:59;;;;;;;2.30;2.20;;;;;;;;;;5053600;28;20515;-75
2022/07/17 10:58:27;;;;;;;2.20;2.00;;;;;;;;;;5053042;28;20449;-77
2022/07/17 11:00:59;;;;;;;1.90;1.80;;;;;;;;;;5052995;28;20445;-77
2022/07/17 11:03:26;;;;;;;2.17;2.07;;;;;;;;;;5052417;28;20509;-77
2022/07/17 11:05:53;;;;;;;2.27;2.17;;;;;;;;;;5052434;28;20507;-76
2022/07/17 11:08:20;;;;;;;2.60;2.40;;;;;;;;;;5052736;28;20555;-77
2022/07/17 11:10:47;;;;;;;2.60;2.50;;;;;;;;;;5033830;28;20533;-76
2022/07/17 11:13:16;;;;;;;2.50;2.30;;;;;;;;;;5032330;28;20905;-77
2022/07/17 11:15:44;;;;;;;2.23;2.10;;;;;;;;;;5033255;28;20512;-77
2022/07/17 11:18:13;;;;;;;1.80;1.70;;;;;;;;;;5033117;28;20898;-77
2022/07/17 11:20:54;;;;;;;2.10;2.00;;;;;;;;;;5032655;28;20534;-78
2022/07/17 11:23:21;;;;;;;2.13;2.03;;;;;;;;;;5033352;28;20507;-78
2022/07/17 11:25:55;;;;;;;2.10;2.00;;;;;;;;;;5033808;28;21165;-77
2022/07/17 11:28:32;;;;;;;5.43;2.47;;;;;;;;;;5032835;28;20493;-78
2022/07/17 11:30:59;;;;;;;2.07;1.97;;;;;;;;;;5032977;28;20519;-77
2022/07/17 11:33:28;;;;;;;3.17;2.30;;;;;;;;;;5032381;28;20467;-77
2022/07/17 11:35:55;;;;;;;2.07;1.97;;;;;;;;;;5035804;28;20500;-77
2022/07/17 11:38:26;;;;;;;3.00;2.10;;;;;;;;;;5034689;28;20844;-78
2022/07/17 11:40:53;;;;;;;1.90;1.80;;;;;;;;;;5032843;28;20505;-77
2022/07/17 11:43:20;;;;;;;2.73;1.80;;;;;;;;;;5032498;28;20557;-77
2022/07/17 11:45:48;;;;;;;2.00;1.90;;;;;;;;;;5035337;28;20478;-78
2022/07/17 11:48:15;;;;;;;2.30;2.10;;;;;;;;;;5034191;28;20488;-77
2022/07/17 11:50:53;;;;;;;2.43;2.23;;;;;;;;;;5033592;28;20450;-78
2022/07/17 11:53:20;;;;;;;2.23;2.07;;;;;;;;;;5032291;28;21003;-76
2022/07/17 11:55:47;;;;;;;2.80;2.30;;;;;;;;;;5032320;28;20442;-77
2022/07/17 11:58:15;;;;;;;2.10;2.00;;;;;;;;;;5032401;28;20512;-77
2022/07/17 12:00:42;;;;;;;2.07;1.97;;;;;;;;;;5032520;28;20515;-77
2022/07/17 12:03:09;;;;;;;2.00;1.90;;;;;;;;;;5032108;28;20892;-77
2022/07/17 12:05:37;;;;;;;2.23;2.13;;;;;;;;;;5032299;28;20513;-77
2022/07/17 12:08:09;;;;;;;4.60;2.13;;;;;;;;;;5031996;28;20446;-77
2022/07/17 12:10:36;;;;;;;2.30;2.10;;;;;;;;;;5049792;28;20445;-76
2022/07/17 12:13:04;;;;;;;2.50;2.30;;;;;;;;;;5054270;28;20523;-77
2022/07/17 12:15:38;;;;;;;3.30;2.53;;;;;;;;;;5060554;28;20491;-77
2022/07/17 12:18:06;;;;;;;2.13;1.93;;;;;;;;;;5053298;28;20442;-76
2022/07/17 12:20:42;;;;;;;1.87;1.80;;;;;;;;;;5061884;28;20455;-76
2022/07/17 12:23:11;;;;;;;3.53;2.27;;;;;;;;;;5059916;28;20473;-76
2022/07/17 12:25:38;;;;;;;2.40;2.30;;;;;;;;;;5062167;28;20503;-78
2022/07/17 12:28:05;;;;;;;2.00;1.90;;;;;;;;;;5053780;28;21014;-77
2022/07/17 12:30:32;;;;;;;2.03;1.93;;;;;;;;;;5053459;28;20445;-78
2022/07/17 12:33:00;;;;;;;1.80;1.70;;;;;;;;;;5055264;28;20472;-78
2022/07/17 12:35:27;;;;;;;2.07;1.97;;;;;;;;;;5055292;28;20536;-78
2022/07/17 12:37:54;;;;;;;2.17;2.07;;;;;;;;;;5055815;28;20442;-78
2022/07/17 12:40:22;;;;;;;2.30;2.20;;;;;;;;;;5055220;28;20450;-79
2022/07/17 12:42:49;;;;;;;2.20;2.10;;;;;;;;;;5055191;28;20470;-78
2022/07/17 12:45:16;;;;;;;2.20;2.10;;;;;;;;;;5054091;28;20844;-77
2022/07/17 12:47:43;;;;;;;2.23;2.13;;;;;;;;;;5054892;28;20477;-77
2022/07/17 12:50:10;;;;;;;2.07;1.93;;;;;;;;;;5054510;28;21024;-79
2022/07/17 12:52:37;;;;;;;2.80;1.87;;;;;;;;;;5054433;28;20515;-77
2022/07/17 12:55:06;;;;;;;2.43;1.90;;;;;;;;;;5053230;28;20456;-78
2022/07/17 12:57:34;;;;;;;1.90;1.80;;;;;;;;;;5054723;28;20536;-78
2022/07/17 13:00:01;;;;;;;2.20;2.00;;;;;;;;;;5055437;28;20452;-78
2022/07/17 13:02:28;;;;;;;1.60;1.60;;;;;;;;;;5053793;28;20888;-79
2022/07/17 13:04:55;;;;;;;2.10;1.90;;;;;;;;;;5053549;28;20463;-78
2022/07/17 13:07:23;;;;;;;2.10;2.00;;;;;;;;;;5053102;28;21029;-78
2022/07/17 13:09:50;;;;;;;2.03;1.90;;;;;;;;;;5053759;28;20495;-77
2022/07/17 13:12:17;;;;;;;2.10;1.90;;;;;;;;;;5053741;28;20457;-78
2022/07/17 13:14:45;;;;;;;1.90;1.80;;;;;;;;;;5056349;28;20452;-77
2022/07/17 13:17:12;;;;;;;1.53;1.53;;;;;;;;;;5057150;28;20445;-77
2022/07/17 13:19:39;;;;;;;2.20;2.00;;;;;;;;;;5060237;28;20445;-77
2022/07/17 13:22:06;;;;;;;1.80;1.70;;;;;;;;;;5054187;28;20808;-78
2022/07/17 13:24:33;;;;;;;2.10;2.00;;;;;;;;;;5053347;28;20448;-77
2022/07/17 13:27:01;;;;;;;1.90;1.80;;;;;;;;;;5053578;28;20480;-77
2022/07/17 13:29:28;;;;;;;1.87;1.77;;;;;;;;;;5053467;28;20491;-77
2022/07/17 13:31:57;;;;;;;1.67;1.57;;;;;;;;;;5053725;28;20496;-76
2022/07/17 13:34:24;;;;;;;1.87;1.77;;;;;;;;;;5052877;28;20449;-78
2022/07/17 13:36:51;;;;;;;1.50;1.50;;;;;;;;;;5053061;28;20437;-77
2022/07/17 13:39:18;;;;;;;2.10;1.63;;;;;;;;;;5052687;28;21003;-77
2022/07/17 13:41:45;;;;;;;1.80;1.70;;;;;;;;;;5053023;28;20438;-76
2022/07/17 13:44:12;;;;;;;1.97;1.87;;;;;;;;;;5052596;28;20461;-77
2022/07/17 13:46:39;;;;;;;2.80;1.70;;;;;;;;;;5052826;28;20477;-76
2022/07/17 13:49:07;;;;;;;1.70;1.60;;;;;;;;;;5051993;28;20454;-77
2022/07/17 13:51:35;;;;;;;1.80;1.70;;;;;;;;;;5052493;28;20450;-76
2022/07/17 13:54:02;;;;;;;1.80;1.70;;;;;;;;;;5052932;28;20470;-76
2022/07/17 13:56:29;;;;;;;2.10;2.00;;;;;;;;;;5052892;28;20536;-76
2022/07/17 13:58:56;;;;;;;2.20;1.70;;;;;;;;;;5052710;28;20447;-76
2022/07/17 14:01:23;;;;;;;1.83;1.73;;;;;;;;;;5052978;28;20449;-77
2022/07/17 14:03:50;;;;;;;1.90;1.80;;;;;;;;;;5052718;28;20492;-77
2022/07/17 14:06:19;;;;;;;1.63;1.53;;;;;;;;;;5056178;28;20534;-76
2022/07/17 14:08:46;;;;;;;4.20;1.83;;;;;;;;;;5056609;28;20445;-77
2022/07/17 14:11:13;;;;;;;3.70;1.63;;;;;;;;;;5056375;28;21009;-77
2022/07/17 14:13:40;;;;;;;1.63;1.53;;;;;;;;;;5056439;28;20591;-77
2022/07/17 14:16:08;;;;;;;1.57;1.57;;;;;;;;;;5057085;28;20441;-76
2022/07/17 14:18:35;;;;;;;1.50;1.40;;;;;;;;;;5056862;28;20441;-77
2022/07/17 14:21:02;;;;;;;1.70;1.60;;;;;;;;;;5056490;28;20442;-78
2022/07/17 14:23:30;;;;;;;1.80;1.70;;;;;;;;;;5056562;28;20456;-76
2022/07/17 14:25:57;;;;;;;1.30;1.20;;;;;;;;;;5056219;28;20504;-77
2022/07/17 14:28:24;;;;;;;1.50;1.50;;;;;;;;;;5056228;28;20441;-77
2022/07/17 14:30:51;;;;;;;1.53;1.43;;;;;;;;;;5055966;28;20441;-76
2022/07/17 14:33:18;;;;;;;1.70;1.60;;;;;;;;;;5056145;28;20511;-77
2022/07/17 14:35:45;;;;;;;1.80;1.70;;;;;;;;;;5056145;28;20460;-76
2022/07/17 14:38:12;;;;;;;1.90;1.80;;;;;;;;;;5055973;28;20445;-77
2022/07/17 14:40:41;;;;;;;1.80;1.70;;;;;;;;;;5055923;28;20998;-76
2022/07/17 14:43:07;;;;;;;1.67;1.57;;;;;;;;;;5055575;28;20473;-76
2022/07/17 14:45:35;;;;;;;3.43;1.70;;;;;;;;;;5055695;28;20491;-76
2022/07/17 14:48:01;;;;;;;3.43;1.60;;;;;;;;;;5056142;28;20526;-77